Time;durP1;ratioP1;P1;durP2;ratioP2;P2;SDS_P1;SDS_P2;PMS_P1;PMS_P2;Temp;Humidity;BMP_temperature;BMP_pressure;BME280_temperature;BME280_humidity;BME280_pressure;Samples;Min_cycle;Max_cycle;Signal;HPM_P1;HPM_P2
2022/11/21 00:00:46;;;;;;;0.83;0.70;;;9.80;64.80;;;;;;5046920;28;20451;-58
2022/11/21 00:03:12;;;;;;;1.53;1.03;;;10.00;63.60;;;;;;5045099;28;20446;-59
2022/11/21 00:05:43;;;;;;;0.90;0.90;;;9.90;65.00;;;;;;5048647;28;20443;-58
2022/11/21 00:08:10;;;;;;;0.70;0.60;;;9.80;65.50;;;;;;5049380;28;20453;-59
2022/11/21 00:10:37;;;;;;;0.83;0.80;;;9.50;66.20;;;;;;5046906;28;20976;-58
2022/11/21 00:13:04;;;;;;;1.50;0.70;;;9.30;67.50;;;;;;5059247;28;20480;-59
2022/11/21 00:15:29;;;;;;;1.43;0.80;;;9.30;68.30;;;;;;5036219;28;20454;-58
2022/11/21 00:17:55;;;;;;;0.97;0.70;;;9.30;68.30;;;;;;5050142;28;20435;-58
2022/11/21 00:20:21;;;;;;;2.13;0.70;;;9.40;68.50;;;;;;5046997;28;20230;-59
2022/11/21 00:22:47;;;;;;;1.03;0.80;;;9.40;68.50;;;;;;5049779;28;20282;-59
2022/11/21 00:25:13;;;;;;;0.83;0.70;;;9.30;68.60;;;;;;5053570;28;21014;-58
2022/11/21 00:27:39;;;;;;;0.63;0.60;;;9.10;69.70;;;;;;5055740;28;20442;-59
2022/11/21 00:30:07;;;;;;;0.80;0.80;;;9.30;70.20;;;;;;5049545;28;20941;-59
2022/11/21 00:32:33;;;;;;;1.73;0.67;;;9.30;69.80;;;;;;5051743;28;20279;-59
2022/11/21 00:34:58;;;;;;;0.73;0.73;;;9.30;69.10;;;;;;5051479;28;20525;-59
2022/11/21 00:37:24;;;;;;;0.60;0.60;;;9.10;69.30;;;;;;5057328;28;20445;-59
2022/11/21 00:39:49;;;;;;;0.63;0.63;;;9.20;69.70;;;;;;5056676;28;20231;-59
2022/11/21 00:42:15;;;;;;;0.73;0.73;;;9.40;69.50;;;;;;5047729;28;20208;-59
2022/11/21 00:44:41;;;;;;;0.90;0.80;;;9.60;68.40;;;;;;5051628;28;20225;-59
2022/11/21 00:47:06;;;;;;;0.70;0.70;;;9.80;67.30;;;;;;5053754;28;20244;-59
2022/11/21 00:49:32;;;;;;;1.87;1.13;;;9.80;66.90;;;;;;5053446;28;20191;-59
2022/11/21 00:51:57;;;;;;;0.73;0.73;;;9.90;66.20;;;;;;5058043;28;20197;-59
2022/11/21 00:54:23;;;;;;;0.70;0.70;;;10.10;64.60;;;;;;5050716;28;20778;-59
2022/11/21 00:56:49;;;;;;;1.23;0.80;;;10.10;64.10;;;;;;5051982;28;20225;-59
2022/11/21 00:59:14;;;;;;;2.43;0.77;;;10.30;63.50;;;;;;5052833;28;20700;-59
2022/11/21 01:01:40;;;;;;;0.70;0.60;;;10.20;62.60;;;;;;5057543;28;20278;-59
2022/11/21 01:04:05;;;;;;;0.60;0.60;;;10.20;62.90;;;;;;5047931;28;20782;-59
2022/11/21 01:06:31;;;;;;;1.53;1.27;;;10.10;62.50;;;;;;5052727;28;20196;-59
2022/11/21 01:08:57;;;;;;;1.17;0.97;;;10.10;62.80;;;;;;5054555;28;20192;-59
2022/11/21 01:11:23;;;;;;;0.60;0.50;;;10.10;62.50;;;;;;5046517;28;20189;-59
2022/11/21 01:13:49;;;;;;;1.43;0.50;;;10.20;62.80;;;;;;5050104;28;20431;-59
2022/11/21 01:16:15;;;;;;;1.97;0.70;;;10.10;63.30;;;;;;5046403;28;20245;-60
2022/11/21 01:18:41;;;;;;;0.83;0.70;;;10.00;62.80;;;;;;5052395;28;20995;-60
2022/11/21 01:21:12;;;;;;;1.20;0.70;;;9.80;64.30;;;;;;5053711;28;20468;-60
2022/11/21 01:23:37;;;;;;;1.00;0.50;;;9.80;65.00;;;;;;5062461;28;20285;-60
2022/11/21 01:26:05;;;;;;;0.90;0.60;;;9.90;64.90;;;;;;5057347;28;20446;-61
2022/11/21 01:28:31;;;;;;;0.70;0.70;;;10.00;63.20;;;;;;5053133;28;20659;-60
2022/11/21 01:31:11;;;;;;;0.70;0.63;;;10.10;63.10;;;;;;5058469;28;20554;-60
2022/11/21 01:33:38;;;;;;;0.80;0.60;;;10.10;63.10;;;;;;5056604;28;20507;-60
2022/11/21 01:36:20;;;;;;;0.77;0.70;;;10.00;63.40;;;;;;5054568;28;20529;-60
2022/11/21 01:38:48;;;;;;;1.07;0.90;;;9.70;65.40;;;;;;5049132;28;20463;-60
2022/11/21 01:41:20;;;;;;;2.40;0.70;;;9.70;66.50;;;;;;5054552;28;20434;-60
2022/11/21 01:43:46;;;;;;;0.83;0.70;;;9.70;67.20;;;;;;5051906;28;20446;-61
2022/11/21 01:46:21;;;;;;;3.23;1.30;;;9.70;67.00;;;;;;5057265;28;20446;-60
2022/11/21 01:48:49;;;;;;;0.90;0.67;;;9.70;67.40;;;;;;5047984;28;20474;-60
2022/11/21 01:51:24;;;;;;;1.20;0.80;;;9.60;67.60;;;;;;5049583;28;20462;-60
2022/11/21 01:53:56;;;;;;;1.97;0.80;;;9.60;68.50;;;;;;5058564;28;20446;-60
2022/11/21 01:56:23;;;;;;;1.53;0.80;;;9.50;69.40;;;;;;5048472;28;20528;-60
2022/11/21 01:58:51;;;;;;;0.83;0.70;;;9.50;69.30;;;;;;5059959;28;20476;-60
2022/11/21 02:01:17;;;;;;;2.43;0.70;;;9.30;69.20;;;;;;5053152;28;20450;-61
2022/11/21 02:03:44;;;;;;;3.60;1.00;;;9.10;70.30;;;;;;5050095;28;20441;-60
2022/11/21 02:06:11;;;;;;;5.00;0.90;;;9.00;71.20;;;;;;5050414;28;20805;-60
2022/11/21 02:08:37;;;;;;;1.33;1.03;;;9.20;71.60;;;;;;5050406;28;20448;-60
2022/11/21 02:11:28;;;;;;;1.47;0.87;;;9.50;70.90;;;;;;5050402;28;20505;-60
2022/11/21 02:13:55;;;;;;;0.70;0.70;;;9.60;69.90;;;;;;5048166;28;20542;-60
2022/11/21 02:16:22;;;;;;;0.73;0.60;;;9.90;69.70;;;;;;5054691;28;20876;-60
2022/11/21 02:18:48;;;;;;;1.20;1.10;;;10.10;68.00;;;;;;5051655;28;20961;-60
2022/11/21 02:21:27;;;;;;;0.60;0.60;;;10.00;67.70;;;;;;5051172;28;20431;-60
2022/11/21 02:24:06;;;;;;;2.33;1.00;;;10.10;67.60;;;;;;5050878;28;20185;-60
2022/11/21 02:26:32;;;;;;;1.00;0.93;;;10.30;66.70;;;;;;5051443;28;20442;-60
2022/11/21 02:28:58;;;;;;;1.23;0.80;;;10.50;66.40;;;;;;5050320;28;20469;-60
2022/11/21 02:31:23;;;;;;;1.43;0.93;;;10.50;66.10;;;;;;5048424;28;20450;-60
2022/11/21 02:33:49;;;;;;;1.43;0.80;;;10.00;65.30;;;;;;5049630;28;20196;-60
2022/11/21 02:36:46;;;;;;;1.87;0.90;;;10.00;66.90;;;;;;5047437;28;20192;-60
2022/11/21 02:39:34;;;;;;;0.70;0.70;;;10.20;66.10;;;;;;5053870;28;20737;-61
2022/11/21 02:42:17;;;;;;;2.53;0.60;;;10.00;66.10;;;;;;5056962;28;20431;-60
2022/11/21 02:45:18;;;;;;;3.27;1.20;;;10.10;66.20;;;;;;5048789;28;20443;-60
2022/11/21 02:47:45;;;;;;;0.73;0.70;;;10.00;66.20;;;;;;5024602;28;20450;-60
2022/11/21 02:50:29;;;;;;;0.60;0.60;;;9.90;67.60;;;;;;5051256;28;20442;-60
2022/11/21 02:52:55;;;;;;;0.90;0.80;;;9.70;67.80;;;;;;5051038;28;20447;-60
2022/11/21 02:55:22;;;;;;;0.83;0.60;;;9.80;67.90;;;;;;5049413;28;20538;-60
2022/11/21 02:57:48;;;;;;;0.90;0.70;;;9.50;67.30;;;;;;5052240;28;20878;-60
2022/11/21 03:00:14;;;;;;;1.43;1.23;;;9.40;68.20;;;;;;5043484;28;20598;-62
2022/11/21 03:02:40;;;;;;;4.73;1.10;;;9.20;68.80;;;;;;5054541;28;20216;-60
2022/11/21 03:05:07;;;;;;;1.43;1.10;;;9.40;69.30;;;;;;5047583;28;20474;-60
2022/11/21 03:07:33;;;;;;;0.80;0.80;;;9.60;68.40;;;;;;5050249;28;20183;-60
2022/11/21 03:09:59;;;;;;;1.30;0.77;;;9.80;68.30;;;;;;5052048;28;20470;-60
2022/11/21 03:12:24;;;;;;;0.73;0.70;;;9.90;67.90;;;;;;5051392;28;20197;-60
2022/11/21 03:14:50;;;;;;;1.50;0.70;;;10.00;65.90;;;;;;5047543;28;20200;-60
2022/11/21 03:17:15;;;;;;;1.53;0.70;;;9.90;66.20;;;;;;5047398;28;20649;-60
2022/11/21 03:19:41;;;;;;;0.60;0.60;;;10.10;65.40;;;;;;5049544;28;20228;-60
2022/11/21 03:22:07;;;;;;;1.37;0.83;;;10.20;65.10;;;;;;5049131;28;20230;-60
2022/11/21 03:24:32;;;;;;;0.80;0.80;;;10.40;64.90;;;;;;5047904;28;20200;-60
2022/11/21 03:26:58;;;;;;;1.20;0.90;;;10.50;64.60;;;;;;5045558;28;20543;-60
2022/11/21 03:29:24;;;;;;;1.30;0.80;;;10.60;63.90;;;;;;5037691;28;20195;-60
2022/11/21 03:31:49;;;;;;;0.70;0.70;;;10.10;63.20;;;;;;5046911;28;20192;-60
2022/11/21 03:34:15;;;;;;;1.20;1.07;;;10.20;64.30;;;;;;5047607;28;20193;-60
2022/11/21 03:36:40;;;;;;;0.93;0.93;;;10.20;63.90;;;;;;5043265;28;20197;-60
2022/11/21 03:39:06;;;;;;;1.00;1.00;;;10.30;63.80;;;;;;5047337;28;20676;-60
2022/11/21 03:41:32;;;;;;;1.00;0.90;;;10.20;63.80;;;;;;5049980;28;20196;-60
2022/11/21 03:44:00;;;;;;;2.07;1.00;;;10.40;63.80;;;;;;5046891;28;20358;-60
2022/11/21 03:46:26;;;;;;;1.23;0.70;;;10.40;63.40;;;;;;5046829;28;20193;-60
2022/11/21 03:48:52;;;;;;;1.13;0.70;;;10.30;63.30;;;;;;5045338;28;20443;-60
2022/11/21 03:51:23;;;;;;;0.83;0.83;;;10.10;64.10;;;;;;5047196;28;20797;-60
2022/11/21 03:53:49;;;;;;;0.70;0.70;;;9.90;66.20;;;;;;5047032;28;20528;-60
2022/11/21 03:56:15;;;;;;;0.97;0.97;;;9.90;66.50;;;;;;5047631;28;20490;-60
2022/11/21 03:58:41;;;;;;;0.73;0.70;;;9.90;66.70;;;;;;5046422;28;20466;-60
2022/11/21 04:01:07;;;;;;;2.40;1.00;;;10.00;65.30;;;;;;5047389;28;20439;-60
2022/11/21 04:03:32;;;;;;;1.53;1.00;;;10.30;64.80;;;;;;5045145;28;20973;-60
2022/11/21 04:05:58;;;;;;;2.13;0.80;;;10.50;64.10;;;;;;5046509;28;20549;-60
2022/11/21 04:08:24;;;;;;;0.80;0.70;;;10.60;63.50;;;;;;5048263;28;20196;-60
2022/11/21 04:10:51;;;;;;;1.43;0.80;;;10.70;63.10;;;;;;5047252;28;21416;-60
2022/11/21 04:13:17;;;;;;;1.40;0.90;;;10.90;62.60;;;;;;5049214;28;21079;-60
2022/11/21 04:15:44;;;;;;;1.63;0.57;;;10.70;62.90;;;;;;5047192;28;20447;-60
2022/11/21 04:18:10;;;;;;;0.70;0.57;;;10.60;63.30;;;;;;5044771;28;20189;-60
2022/11/21 04:20:36;;;;;;;1.10;1.00;;;10.30;63.60;;;;;;5052221;28;20506;-60
2022/11/21 04:23:02;;;;;;;1.00;0.90;;;10.50;63.40;;;;;;5044835;28;20448;-60
2022/11/21 04:25:28;;;;;;;1.40;1.30;;;10.40;63.40;;;;;;5047847;28;20946;-60
2022/11/21 04:27:57;;;;;;;1.63;0.90;;;10.30;63.90;;;;;;5059924;28;20192;-61
2022/11/21 04:30:23;;;;;;;0.90;0.90;;;10.40;63.90;;;;;;5055114;28;20193;-60
2022/11/21 04:32:55;;;;;;;1.57;0.80;;;10.30;64.10;;;;;;5048318;28;20517;-60
2022/11/21 04:35:22;;;;;;;1.00;0.80;;;10.30;64.70;;;;;;5052819;28;20211;-60
2022/11/21 04:37:48;;;;;;;0.73;0.67;;;10.40;65.50;;;;;;5042806;28;20461;-60
2022/11/21 04:40:14;;;;;;;2.87;0.70;;;10.50;64.60;;;;;;5058923;28;20474;-61
2022/11/21 04:42:44;;;;;;;0.83;0.60;;;10.60;64.00;;;;;;5046959;28;20192;-60
2022/11/21 04:45:10;;;;;;;1.90;0.70;;;10.60;64.20;;;;;;5047308;28;20868;-60
2022/11/21 04:47:41;;;;;;;1.83;0.73;;;10.50;63.80;;;;;;5047929;28;20576;-60
2022/11/21 04:50:08;;;;;;;1.10;0.90;;;10.40;64.50;;;;;;5031633;28;20830;-60
2022/11/21 04:52:35;;;;;;;2.07;0.70;;;10.20;64.70;;;;;;5049235;28;20442;-60
2022/11/21 04:55:00;;;;;;;0.70;0.70;;;10.20;65.60;;;;;;5047288;28;20523;-60
2022/11/21 04:57:27;;;;;;;3.33;0.80;;;10.30;65.00;;;;;;5046784;28;20561;-60
2022/11/21 04:59:53;;;;;;;0.80;0.80;;;10.10;65.20;;;;;;5051251;28;20228;-60
2022/11/21 05:02:18;;;;;;;0.90;0.80;;;10.00;65.80;;;;;;5047352;28;20922;-60
2022/11/21 05:04:44;;;;;;;1.83;0.97;;;9.60;67.30;;;;;;5046697;28;20197;-60
2022/11/21 05:07:09;;;;;;;1.13;0.60;;;9.50;68.60;;;;;;5046696;28;20192;-60
2022/11/21 05:09:35;;;;;;;1.40;0.80;;;9.70;68.70;;;;;;5053839;28;20203;-60
2022/11/21 05:14:45;;;;;;;0.77;0.67;;;9.80;68.50;;;;;;5052435;28;20195;-61
2022/11/21 05:17:10;;;;;;;1.20;0.97;;;9.90;68.50;;;;;;5050053;28;20438;-60
2022/11/21 05:19:36;;;;;;;2.60;1.20;;;10.20;66.50;;;;;;5060150;28;20267;-60
2022/11/21 05:22:02;;;;;;;0.73;0.73;;;10.40;65.50;;;;;;5052283;28;20197;-61
2022/11/21 05:24:27;;;;;;;2.43;0.93;;;10.40;65.10;;;;;;5049611;28;20196;-60
2022/11/21 05:26:53;;;;;;;2.40;1.10;;;10.40;65.00;;;;;;5054378;28;20674;-60
2022/11/21 05:29:20;;;;;;;1.43;1.13;;;10.60;64.40;;;;;;5053525;28;20602;-60
2022/11/21 05:31:45;;;;;;;2.30;1.00;;;10.70;63.90;;;;;;5051825;28;20435;-60
2022/11/21 05:34:11;;;;;;;0.80;0.80;;;10.80;63.90;;;;;;5047238;28;20433;-60
2022/11/21 05:36:37;;;;;;;1.30;1.10;;;10.80;63.40;;;;;;5053466;28;20557;-60
2022/11/21 05:39:03;;;;;;;1.03;0.90;;;10.80;63.90;;;;;;5050658;28;20307;-60
2022/11/21 05:41:28;;;;;;;1.70;0.90;;;10.80;63.50;;;;;;5055007;28;20216;-60
2022/11/21 05:43:54;;;;;;;1.00;0.90;;;10.60;63.50;;;;;;5046213;28;20501;-60
2022/11/21 05:46:22;;;;;;;3.63;1.03;;;10.80;63.80;;;;;;5051200;28;20224;-60
2022/11/21 05:48:49;;;;;;;2.80;1.00;;;11.00;63.40;;;;;;5061818;28;20612;-60
2022/11/21 05:51:15;;;;;;;1.33;1.23;;;11.10;63.40;;;;;;5050819;28;20544;-60
2022/11/21 05:53:41;;;;;;;3.67;1.40;;;11.00;63.10;;;;;;5048820;28;20435;-60
2022/11/21 05:56:09;;;;;;;1.50;1.00;;;11.00;63.50;;;;;;5060005;28;20830;-60
2022/11/21 05:58:35;;;;;;;1.50;1.40;;;11.00;63.00;;;;;;5050559;28;20258;-60
2022/11/21 06:01:01;;;;;;;2.30;1.17;;;11.10;63.00;;;;;;5050580;28;20443;-61
2022/11/21 06:03:31;;;;;;;1.87;1.50;;;10.90;63.20;;;;;;5049650;28;20216;-60
2022/11/21 06:06:14;;;;;;;1.57;1.00;;;11.00;63.10;;;;;;5050610;28;20446;-60
2022/11/21 06:08:44;;;;;;;1.93;1.17;;;11.10;63.00;;;;;;5051794;28;20455;-59
2022/11/21 06:11:12;;;;;;;1.63;1.30;;;11.00;63.00;;;;;;5045970;28;20501;-60
2022/11/21 06:13:38;;;;;;;1.60;1.50;;;11.20;62.60;;;;;;5034508;28;20442;-59
2022/11/21 06:16:22;;;;;;;1.27;1.17;;;11.20;62.30;;;;;;5051406;28;20438;-60
2022/11/21 06:18:51;;;;;;;3.10;1.27;;;11.30;62.10;;;;;;5047826;28;20255;-60
2022/11/21 06:21:24;;;;;;;3.33;1.00;;;11.40;62.20;;;;;;5047115;28;20445;-60
2022/11/21 06:23:51;;;;;;;2.33;1.03;;;11.50;63.80;;;;;;5047220;28;20462;-60
2022/11/21 06:26:18;;;;;;;4.83;1.17;;;11.70;63.70;;;;;;5052820;28;20683;-60
2022/11/21 06:28:45;;;;;;;9.30;1.30;;;11.80;63.50;;;;;;5059872;28;20856;-60
2022/11/21 06:31:21;;;;;;;1.63;1.00;;;12.10;63.70;;;;;;5054482;28;20445;-60
2022/11/21 06:33:50;;;;;;;1.50;1.40;;;12.30;63.10;;;;;;5049771;28;20466;-60
2022/11/21 06:36:16;;;;;;;1.70;1.20;;;12.40;61.90;;;;;;5047401;28;20446;-60
2022/11/21 06:38:43;;;;;;;1.10;1.00;;;12.60;62.10;;;;;;5048511;28;20495;-61
2022/11/21 06:41:13;;;;;;;2.17;1.20;;;12.70;61.10;;;;;;5048674;28;22074;-60
2022/11/21 06:43:40;;;;;;;2.00;1.00;;;12.70;59.90;;;;;;5047901;28;20455;-61
2022/11/21 06:46:06;;;;;;;1.53;1.43;;;12.60;59.00;;;;;;5048326;28;20527;-60
2022/11/21 06:48:32;;;;;;;5.20;1.50;;;12.50;58.60;;;;;;5049804;28;20542;-60
2022/11/21 06:51:04;;;;;;;3.23;1.30;;;12.30;58.70;;;;;;5049726;28;20197;-60
2022/11/21 06:53:29;;;;;;;2.40;1.30;;;11.90;58.90;;;;;;5047122;28;20442;-60
2022/11/21 06:55:58;;;;;;;1.40;1.30;;;11.70;59.60;;;;;;5049325;28;20808;-60
2022/11/21 06:58:24;;;;;;;3.83;1.60;;;11.40;60.10;;;;;;5049679;28;20184;-60
2022/11/21 07:00:49;;;;;;;1.20;1.10;;;11.20;61.10;;;;;;5047637;28;20450;-60
2022/11/21 07:03:15;;;;;;;1.30;1.10;;;11.40;60.70;;;;;;5050315;28;20686;-60
2022/11/21 07:05:41;;;;;;;1.60;1.10;;;11.30;60.90;;;;;;5048026;28;20558;-60
2022/11/21 07:08:07;;;;;;;2.17;1.23;;;11.40;60.70;;;;;;5049247;28;20189;-60
2022/11/21 07:10:32;;;;;;;3.93;1.63;;;11.50;60.50;;;;;;5049325;28;20287;-60
2022/11/21 07:15:46;;;;;;;4.20;1.23;;;11.60;60.60;;;;;;5040790;28;20203;-60
2022/11/21 07:18:12;;;;;;;1.83;1.20;;;11.70;60.40;;;;;;5050635;28;20450;-60
2022/11/21 07:20:39;;;;;;;1.30;1.20;;;11.80;60.10;;;;;;5049533;28;20479;-60
2022/11/21 07:23:04;;;;;;;1.87;1.30;;;11.80;60.10;;;;;;5049098;28;20258;-60
2022/11/21 07:25:30;;;;;;;1.37;1.13;;;11.80;59.80;;;;;;5048173;28;20443;-60
2022/11/21 07:28:00;;;;;;;1.47;1.10;;;11.80;59.60;;;;;;5045948;28;20246;-61
2022/11/21 07:30:26;;;;;;;1.33;1.00;;;11.90;60.30;;;;;;5045067;28;20901;-60
2022/11/21 07:32:55;;;;;;;2.90;1.73;;;12.10;58.90;;;;;;5042878;28;20442;-61
2022/11/21 07:35:20;;;;;;;2.93;1.23;;;12.60;58.40;;;;;;5043730;28;20192;-61
2022/11/21 07:37:46;;;;;;;3.07;1.13;;;13.00;57.10;;;;;;5046262;28;20444;-60
2022/11/21 07:40:12;;;;;;;1.37;1.20;;;13.20;55.90;;;;;;5045304;28;20252;-61
2022/11/21 07:42:37;;;;;;;1.43;1.10;;;13.40;55.70;;;;;;5046799;28;20211;-60
2022/11/21 07:45:03;;;;;;;1.70;1.10;;;13.70;55.30;;;;;;5045920;28;20452;-60
2022/11/21 07:47:29;;;;;;;1.27;1.10;;;13.90;54.50;;;;;;5048390;28;20228;-58
2022/11/21 07:49:54;;;;;;;0.83;0.80;;;13.90;53.70;;;;;;5048336;28;20275;-58
2022/11/21 07:52:20;;;;;;;1.90;1.30;;;13.90;53.60;;;;;;5048557;28;20560;-58
2022/11/21 07:54:46;;;;;;;1.97;1.23;;;13.90;53.40;;;;;;5049554;28;20199;-60
2022/11/21 07:57:11;;;;;;;1.43;1.00;;;13.90;53.40;;;;;;5050256;28;20596;-60
2022/11/21 07:59:37;;;;;;;2.40;1.07;;;13.60;53.80;;;;;;5048519;28;20220;-60
2022/11/21 08:02:02;;;;;;;1.57;1.47;;;13.40;54.20;;;;;;5049285;28;20196;-60
2022/11/21 08:04:28;;;;;;;1.33;1.10;;;13.30;54.70;;;;;;5036841;28;20200;-60
2022/11/21 08:06:54;;;;;;;1.93;1.10;;;13.10;54.90;;;;;;5049129;28;20200;-60
2022/11/21 08:09:19;;;;;;;1.10;1.00;;;12.90;55.40;;;;;;5050663;28;20272;-60
2022/11/21 08:11:45;;;;;;;1.70;0.90;;;12.60;55.80;;;;;;5050290;28;20209;-60
2022/11/21 08:14:10;;;;;;;1.83;1.10;;;12.50;56.30;;;;;;5047830;28;20188;-61
2022/11/21 08:16:36;;;;;;;1.90;1.17;;;12.30;56.70;;;;;;5050886;28;20227;-60
2022/11/21 08:19:02;;;;;;;2.00;1.10;;;12.20;57.00;;;;;;5049627;28;20224;-60
2022/11/21 08:21:27;;;;;;;1.47;1.27;;;12.10;57.30;;;;;;5051174;28;20196;-60
2022/11/21 08:23:53;;;;;;;4.20;1.07;;;12.10;57.70;;;;;;5046352;28;20191;-60
2022/11/21 08:26:19;;;;;;;1.20;1.10;;;12.00;58.30;;;;;;5050993;28;20192;-60
2022/11/21 08:28:45;;;;;;;1.00;0.90;;;12.00;58.30;;;;;;5047908;28;20454;-60
2022/11/21 08:31:10;;;;;;;1.40;0.97;;;12.20;58.30;;;;;;5051207;28;20193;-60
2022/11/21 08:33:36;;;;;;;3.97;1.67;;;12.30;58.70;;;;;;5049833;28;20200;-60
2022/11/21 08:36:05;;;;;;;1.80;1.50;;;12.40;58.00;;;;;;5046161;28;20196;-60
2022/11/21 08:38:31;;;;;;;4.20;1.10;;;12.30;57.80;;;;;;5049162;28;20192;-60
2022/11/21 08:43:41;;;;;;;1.80;1.10;;;12.10;58.00;;;;;;5048373;28;20466;-60
2022/11/21 08:46:07;;;;;;;5.20;1.27;;;11.90;57.80;;;;;;5052308;28;20451;-60
2022/11/21 08:48:33;;;;;;;3.57;1.17;;;11.90;58.00;;;;;;5054357;28;20268;-60
2022/11/21 08:50:58;;;;;;;2.10;1.00;;;12.00;58.00;;;;;;5048781;28;20197;-60
2022/11/21 08:53:24;;;;;;;2.53;1.60;;;12.20;58.00;;;;;;5052251;28;20201;-61
2022/11/21 08:55:50;;;;;;;1.70;1.40;;;12.30;57.80;;;;;;5052277;28;20430;-58
2022/11/21 08:58:16;;;;;;;2.40;1.20;;;12.40;57.50;;;;;;5050352;28;20570;-58
2022/11/21 09:00:41;;;;;;;1.30;1.20;;;12.50;57.80;;;;;;5049853;28;20315;-58
2022/11/21 09:03:07;;;;;;;4.03;1.40;;;12.60;57.70;;;;;;5048283;28;20750;-58
2022/11/21 09:05:33;;;;;;;2.47;1.43;;;12.60;56.50;;;;;;5050606;28;20280;-58
2022/11/21 09:07:58;;;;;;;2.27;1.40;;;12.70;56.40;;;;;;5050269;28;20197;-58
2022/11/21 09:10:25;;;;;;;4.63;1.20;;;12.80;56.00;;;;;;5048798;28;20454;-58
2022/11/21 09:12:52;;;;;;;2.10;1.00;;;12.90;56.30;;;;;;5051797;28;20279;-58
2022/11/21 09:18:03;;;;;;;3.03;1.37;;;12.70;58.20;;;;;;5046119;28;20473;-58
2022/11/21 09:20:30;;;;;;;1.97;1.23;;;12.80;57.80;;;;;;5048217;28;20521;-57
2022/11/21 09:22:56;;;;;;;2.33;1.50;;;13.00;57.50;;;;;;5049053;28;20469;-56
2022/11/21 09:25:22;;;;;;;2.20;1.40;;;13.10;57.10;;;;;;5033438;28;20440;-56
2022/11/21 09:27:47;;;;;;;2.57;1.30;;;13.20;57.00;;;;;;5051418;28;20784;-57
2022/11/21 09:30:13;;;;;;;2.57;1.27;;;13.50;57.10;;;;;;5049988;28;20250;-57
2022/11/21 09:32:39;;;;;;;3.33;1.30;;;13.70;56.30;;;;;;5049914;28;20197;-57
2022/11/21 09:35:05;;;;;;;3.63;1.50;;;13.80;55.70;;;;;;5052112;28;20427;-56
2022/11/21 09:37:36;;;;;;;1.40;1.17;;;14.00;54.60;;;;;;5049762;28;20636;-57
2022/11/21 09:40:03;;;;;;;1.50;1.40;;;14.10;54.40;;;;;;5050866;28;20525;-57
2022/11/21 09:42:52;;;;;;;1.73;1.13;;;14.20;53.50;;;;;;5050033;28;20443;-57
2022/11/21 09:45:40;;;;;;;3.10;1.90;;;14.30;53.40;;;;;;5050049;28;20864;-57
2022/11/21 09:48:18;;;;;;;2.40;1.40;;;14.30;53.00;;;;;;5052741;28;20439;-57
2022/11/21 09:50:48;;;;;;;5.43;1.40;;;14.10;53.20;;;;;;5051989;28;20775;-57
2022/11/21 09:53:23;;;;;;;2.27;1.10;;;14.00;53.50;;;;;;5047683;28;20489;-56
2022/11/21 09:55:58;;;;;;;2.00;1.23;;;14.00;53.80;;;;;;5047987;28;20921;-57
2022/11/21 09:58:33;;;;;;;2.17;1.27;;;14.10;54.10;;;;;;5050784;28;20590;-56
2022/11/21 10:00:59;;;;;;;2.23;1.43;;;14.10;54.40;;;;;;5050750;28;20450;-56
2022/11/21 10:03:29;;;;;;;5.10;1.60;;;14.00;54.30;;;;;;5049666;28;20523;-55
2022/11/21 10:06:02;;;;;;;6.37;1.60;;;14.10;54.00;;;;;;5051624;28;20196;-56
2022/11/21 10:08:37;;;;;;;3.27;1.43;;;14.00;53.80;;;;;;5051250;28;20439;-56
2022/11/21 10:11:30;;;;;;;5.47;1.30;;;14.00;53.60;;;;;;5047555;28;20447;-57
2022/11/21 10:14:31;;;;;;;3.20;1.90;;;14.00;53.70;;;;;;5039515;28;20442;-57
2022/11/21 10:17:11;;;;;;;5.17;2.07;;;14.30;53.30;;;;;;4983807;28;20464;-57
2022/11/21 10:20:07;;;;;;;3.47;1.40;;;14.70;52.70;;;;;;5040502;28;20908;-57
2022/11/21 10:22:48;;;;;;;5.63;1.80;;;14.90;52.10;;;;;;5050378;28;20839;-57
2022/11/21 10:25:23;;;;;;;2.33;1.30;;;15.10;51.50;;;;;;5037763;28;20447;-57
2022/11/21 10:28:01;;;;;;;1.83;1.47;;;15.10;51.00;;;;;;5049077;28;21020;-57
2022/11/21 10:30:28;;;;;;;3.60;1.40;;;15.20;51.60;;;;;;5051483;28;20422;-57
2022/11/21 10:32:57;;;;;;;2.90;1.70;;;15.50;51.30;;;;;;5049897;28;20938;-57
2022/11/21 10:35:28;;;;;;;2.73;1.43;;;15.70;50.00;;;;;;5049852;28;20569;-57
2022/11/21 10:37:59;;;;;;;2.47;1.20;;;15.70;48.60;;;;;;5043779;28;20451;-57
2022/11/21 10:40:43;;;;;;;3.83;1.40;;;15.60;48.40;;;;;;5046788;28;20518;-58
2022/11/21 10:46:19;;;;;;;3.60;1.33;;;15.10;48.80;;;;;;5045529;28;20546;-59
2022/11/21 10:49:03;;;;;;;2.73;1.20;;;15.10;49.50;;;;;;5043496;28;20447;-59
2022/11/21 10:52:09;;;;;;;1.77;1.23;;;15.30;50.10;;;;;;5048819;28;20449;-59
2022/11/21 10:55:01;;;;;;;3.53;1.63;;;15.30;48.90;;;;;;5047436;28;20450;-59
2022/11/21 10:57:30;;;;;;;4.93;1.20;;;15.40;48.80;;;;;;5045498;28;20912;-58
2022/11/21 11:00:11;;;;;;;5.00;1.93;;;15.30;49.00;;;;;;5050056;28;20530;-58
2022/11/21 11:02:37;;;;;;;5.93;1.73;;;15.20;48.50;;;;;;5032456;28;20807;-58
2022/11/21 11:05:15;;;;;;;3.33;1.50;;;15.20;49.40;;;;;;5047693;28;20465;-57
2022/11/21 11:07:42;;;;;;;4.70;1.53;;;15.20;48.60;;;;;;5047495;28;20481;-57
2022/11/21 11:10:23;;;;;;;3.70;1.77;;;15.30;49.70;;;;;;5047396;28;20442;-58
2022/11/21 11:15:34;;;;;;;2.60;1.37;;;15.20;48.20;;;;;;5042219;28;20605;-57
2022/11/21 11:18:02;;;;;;;2.50;1.10;;;15.20;47.80;;;;;;5046230;28;20427;-57
2022/11/21 11:20:40;;;;;;;2.20;1.27;;;15.00;47.90;;;;;;5048484;28;20508;-57
2022/11/21 11:23:26;;;;;;;4.70;1.50;;;14.70;48.40;;;;;;5049881;28;20482;-57
2022/11/21 11:25:58;;;;;;;3.13;1.10;;;14.50;48.30;;;;;;5045534;28;20903;-57
2022/11/21 11:28:25;;;;;;;2.10;1.70;;;14.30;51.40;;;;;;5047019;28;20466;-57
2022/11/21 11:30:53;;;;;;;4.43;1.40;;;14.50;54.20;;;;;;5047461;28;20442;-59
2022/11/21 11:33:36;;;;;;;3.30;1.70;;;14.80;54.60;;;;;;5047505;28;20439;-58
2022/11/21 11:36:18;;;;;;;2.83;1.67;;;15.00;55.00;;;;;;5042732;28;20472;-58
2022/11/21 11:38:54;;;;;;;5.50;1.50;;;15.20;53.50;;;;;;5047144;28;20447;-58
2022/11/21 11:47:54;;;;;;;4.10;2.40;;;15.10;53.50;;;;;;5044291;28;20991;-58
2022/11/21 11:50:31;;;;;;;1.67;1.50;;;15.30;53.70;;;;;;5035054;28;20445;-57
2022/11/21 11:53:12;;;;;;;2.10;1.90;;;15.40;53.80;;;;;;5048729;28;20522;-57
2022/11/21 11:56:05;;;;;;;3.50;2.10;;;15.60;53.10;;;;;;5049012;28;20473;-58
2022/11/21 11:58:43;;;;;;;3.90;1.60;;;15.60;52.40;;;;;;5047222;28;20455;-58
2022/11/21 12:01:26;;;;;;;3.97;1.40;;;15.60;52.80;;;;;;5049807;28;20449;-58
2022/11/21 12:04:09;;;;;;;5.07;1.37;;;15.70;52.80;;;;;;5046463;28;20431;-57
2022/11/21 12:06:59;;;;;;;3.27;1.50;;;15.70;52.40;;;;;;5043304;28;20516;-57
2022/11/21 12:09:46;;;;;;;4.90;1.43;;;15.70;51.70;;;;;;5042842;28;20455;-57
2022/11/21 12:12:22;;;;;;;4.60;1.20;;;15.70;52.10;;;;;;5044170;28;20451;-57
2022/11/21 12:18:32;;;;;;;4.50;3.67;;;15.90;50.90;;;;;;5045200;28;20565;-57
2022/11/21 12:21:13;;;;;;;2.70;1.73;;;16.00;50.70;;;;;;5043819;28;20455;-57
2022/11/21 12:23:49;;;;;;;2.47;1.57;;;16.10;50.30;;;;;;5047562;28;20546;-57
2022/11/21 12:26:52;;;;;;;2.20;1.40;;;16.20;49.40;;;;;;5045877;28;20461;-57
2022/11/21 12:29:49;;;;;;;4.03;1.90;;;16.20;48.10;;;;;;5048118;28;20439;-57
2022/11/21 12:32:24;;;;;;;3.57;1.30;;;16.10;47.70;;;;;;5048220;28;20655;-57
2022/11/21 12:35:14;;;;;;;2.13;1.37;;;16.10;47.20;;;;;;5048233;28;20532;-58
2022/11/21 12:38:25;;;;;;;2.13;1.20;;;16.00;45.10;;;;;;5048842;28;20535;-57
2022/11/21 12:44:07;;;;;;;3.87;1.53;;;15.20;45.50;;;;;;5046777;28;20507;-57
2022/11/21 12:46:46;;;;;;;1.87;1.30;;;14.90;45.80;;;;;;5048535;28;20451;-58
2022/11/21 12:55:36;;;;;;;3.23;1.63;;;15.10;46.00;;;;;;5041724;28;21750;-57
2022/11/21 12:58:11;;;;;;;2.73;1.63;;;15.10;46.00;;;;;;5039018;28;21105;-57
2022/11/21 13:00:46;;;;;;;2.40;1.40;;;15.20;46.30;;;;;;5044991;28;20494;-57
2022/11/21 13:03:32;;;;;;;4.77;1.80;;;15.30;46.50;;;;;;5047772;28;20497;-58
2022/11/21 13:05:59;;;;;;;1.57;1.03;;;15.40;46.70;;;;;;5046369;28;20533;-57
2022/11/21 13:08:28;;;;;;;3.17;1.40;;;15.50;45.90;;;;;;5044084;28;20478;-57
2022/11/21 13:13:51;;;;;;;6.10;1.43;;;15.80;45.00;;;;;;5044901;28;20531;-56
2022/11/21 13:16:43;;;;;;;5.03;1.40;;;15.90;44.30;;;;;;5044500;28;20432;-57
2022/11/21 13:19:24;;;;;;;2.30;1.30;;;15.80;44.40;;;;;;5043964;28;20490;-56
2022/11/21 13:21:53;;;;;;;2.77;1.00;;;15.80;44.60;;;;;;5046911;28;20431;-56
2022/11/21 13:24:44;;;;;;;2.00;1.00;;;15.90;44.70;;;;;;5046976;28;20454;-56
2022/11/21 13:27:37;;;;;;;4.70;1.20;;;16.00;44.80;;;;;;5040582;28;20454;-56
2022/11/21 13:30:05;;;;;;;3.50;1.43;;;16.00;44.10;;;;;;5043825;28;20455;-57
2022/11/21 13:32:45;;;;;;;2.30;1.00;;;16.20;43.80;;;;;;5052985;28;20431;-56
2022/11/21 13:35:36;;;;;;;1.73;1.00;;;16.30;43.80;;;;;;5051247;28;20517;-56
2022/11/21 13:38:05;;;;;;;2.10;1.30;;;16.30;43.00;;;;;;5047841;28;20434;-57
2022/11/21 13:40:38;;;;;;;2.30;1.20;;;16.40;43.00;;;;;;5052148;28;21038;-56
2022/11/21 13:43:18;;;;;;;1.67;1.20;;;16.50;43.60;;;;;;5050671;28;20530;-56